createdAt,value
2018-12-25T00:00:40.854Z,7.62
2018-12-25T00:03:11.001Z,7.75
2018-12-25T00:05:40.812Z,7.76
2018-12-25T00:08:10.916Z,7.78
2018-12-25T00:10:40.912Z,7.85
2018-12-25T00:13:10.794Z,7.76
2018-12-25T00:15:41.117Z,7.80
2018-12-25T00:18:10.930Z,7.91
2018-12-25T00:20:40.787Z,7.88
2018-12-25T00:23:10.864Z,7.86
2018-12-25T00:25:41.071Z,7.85
2018-12-25T00:28:10.919Z,7.75
2018-12-25T00:30:40.986Z,7.80
2018-12-25T00:33:11.035Z,7.76
2018-12-25T00:35:40.952Z,7.76
2018-12-25T00:38:29.781Z,7.78
2018-12-25T00:40:59.210Z,7.79
2018-12-25T00:43:28.692Z,7.77
2018-12-25T00:45:58.223Z,7.75
2018-12-25T00:48:27.681Z,7.80
2018-12-25T00:50:57.072Z,7.77
2018-12-25T00:53:26.568Z,7.74
2018-12-25T00:55:55.969Z,7.76
2018-12-25T00:58:25.457Z,7.69
2018-12-25T01:00:54.992Z,7.64
2018-12-25T01:03:24.441Z,7.59
2018-12-25T01:05:53.833Z,7.53
2018-12-25T01:08:23.394Z,7.50
2018-12-25T01:10:52.843Z,7.56
2018-12-25T01:13:22.246Z,7.56
2018-12-25T01:15:51.898Z,7.45
2018-12-25T01:18:21.312Z,7.54
2018-12-25T01:21:09.647Z,7.57
2018-12-25T01:23:39.118Z,7.60
2018-12-25T01:26:08.561Z,7.42
2018-12-25T01:28:38.115Z,7.46
2018-12-25T01:31:07.553Z,7.46
2018-12-25T01:33:37.072Z,7.47
2018-12-25T01:36:06.544Z,7.51
2018-12-25T01:38:35.994Z,7.36
2018-12-25T01:41:05.400Z,7.28
2018-12-25T01:43:34.938Z,7.17
2018-12-25T01:46:04.356Z,7.18
2018-12-25T01:48:33.787Z,7.14
2018-12-25T01:51:03.241Z,7.17
2018-12-25T01:53:32.614Z,7.19
2018-12-25T01:56:02.032Z,7.14
2018-12-25T01:58:31.580Z,7.18
2018-12-25T02:01:00.999Z,7.18
2018-12-25T02:03:30.432Z,7.16
2018-12-25T02:05:59.885Z,7.12
2018-12-25T02:08:29.293Z,7.13
2018-12-25T02:10:58.724Z,7.08
2018-12-25T02:13:28.172Z,6.97
2018-12-25T02:15:57.588Z,6.93
2018-12-25T02:18:26.991Z,7.05
2018-12-25T02:20:56.532Z,7.03
2018-12-25T02:26:14.552Z,7.11
2018-12-25T02:28:43.957Z,7.17
2018-12-25T02:31:13.372Z,7.18
2018-12-25T02:33:43.253Z,7.16
2018-12-25T02:36:12.821Z,7.15
2018-12-25T02:38:42.259Z,7.13
2018-12-25T02:41:11.664Z,7.25
2018-12-25T02:43:41.097Z,7.10
2018-12-25T02:46:11.142Z,7.17
2018-12-25T02:48:41.133Z,7.15
2018-12-25T02:51:11.017Z,7.29
2018-12-25T02:53:41.065Z,7.36
2018-12-25T02:56:11.229Z,7.37
2018-12-25T02:58:41.101Z,7.35
2018-12-25T03:01:11.132Z,7.37
2018-12-25T03:03:41.323Z,7.41
2018-12-25T03:06:11.137Z,7.44
2018-12-25T03:08:41.064Z,7.49
2018-12-25T03:11:11.184Z,7.44
2018-12-25T03:16:29.595Z,7.37
2018-12-25T03:18:59.039Z,7.39
2018-12-25T03:21:28.429Z,7.47
2018-12-25T03:26:39.198Z,7.49
2018-12-25T03:29:08.711Z,7.46
2018-12-25T03:31:38.089Z,7.43
2018-12-25T03:34:07.492Z,7.44
2018-12-25T03:39:36.015Z,7.38
2018-12-25T03:44:46.724Z,7.41
2018-12-25T03:47:16.180Z,7.42
2018-12-25T03:49:45.611Z,7.43
2018-12-25T03:52:15.024Z,7.37
2018-12-25T03:54:44.525Z,7.45
2018-12-25T03:57:13.923Z,7.49
2018-12-25T03:59:43.322Z,7.54
2018-12-25T04:02:12.742Z,7.63
2018-12-25T04:04:42.102Z,7.56
2018-12-25T04:07:30.469Z,7.59
2018-12-25T04:09:59.871Z,7.43
2018-12-25T04:12:48.140Z,7.54
2018-12-25T04:15:17.524Z,7.49
2018-12-25T04:17:46.898Z,7.39
2018-12-25T04:20:19.915Z,7.45
2018-12-25T04:22:47.519Z,7.43
2018-12-25T04:25:16.904Z,7.30
2018-12-25T04:27:46.354Z,7.36
2018-12-25T04:30:15.756Z,7.44
2018-12-25T04:32:45.148Z,7.43
2018-12-25T04:35:14.685Z,7.42
2018-12-25T04:37:44.120Z,7.40
2018-12-25T04:43:01.919Z,7.27
2018-12-25T04:45:31.294Z,7.33
2018-12-25T04:48:00.697Z,7.31
2018-12-25T04:50:30.264Z,7.35
2018-12-25T04:52:59.659Z,7.29
2018-12-25T04:55:29.005Z,7.29
2018-12-25T04:57:58.477Z,7.29
2018-12-25T05:00:27.881Z,7.29
2018-12-25T05:02:57.265Z,7.25
2018-12-25T05:05:26.763Z,7.33
2018-12-25T05:07:56.143Z,7.29
2018-12-25T05:10:25.544Z,7.36
2018-12-25T05:12:55.012Z,7.32
2018-12-25T05:18:12.884Z,7.29
2018-12-25T05:20:42.308Z,7.21
2018-12-25T05:23:11.696Z,7.40
2018-12-25T05:25:41.409Z,7.44
2018-12-25T05:28:11.215Z,7.48
2018-12-25T05:30:41.902Z,7.58
2018-12-25T05:33:11.411Z,7.63
2018-12-25T05:35:41.195Z,7.57
2018-12-25T05:38:11.245Z,7.57
2018-12-25T05:40:41.480Z,7.64
2018-12-25T05:43:11.200Z,7.70
2018-12-25T05:45:41.224Z,7.67
2018-12-25T05:48:11.341Z,7.58
2018-12-25T05:56:11.261Z,7.57
2018-12-25T05:58:41.297Z,7.61
2018-12-25T06:01:11.270Z,7.59
2018-12-25T06:03:41.231Z,7.69
2018-12-25T06:06:11.585Z,7.74
2018-12-25T06:08:42.740Z,7.69
2018-12-25T06:11:12.400Z,7.69
2018-12-25T06:13:41.919Z,7.74
2018-12-25T06:16:11.303Z,7.76
2018-12-25T06:18:41.206Z,7.78
2018-12-25T06:21:30.242Z,7.65
2018-12-25T06:23:59.628Z,7.67
2018-12-25T06:26:29.013Z,7.69
2018-12-25T06:31:50.391Z,7.65
2018-12-25T06:34:19.796Z,7.54
2018-12-25T06:36:49.229Z,7.58
2018-12-25T06:39:18.734Z,7.60
2018-12-25T06:41:48.288Z,7.63
2018-12-25T06:47:06.150Z,7.62
2018-12-25T06:49:35.611Z,7.61
2018-12-25T06:52:05.015Z,7.61
2018-12-25T06:54:34.543Z,7.58
2018-12-25T06:57:03.957Z,7.60
2018-12-25T06:59:33.389Z,7.61
2018-12-25T07:02:02.933Z,7.64
2018-12-25T07:04:32.310Z,7.63
2018-12-25T07:07:01.722Z,7.69
2018-12-25T07:09:31.225Z,7.56
2018-12-25T07:12:00.692Z,7.63
2018-12-25T07:14:30.082Z,7.68
2018-12-25T07:16:59.603Z,7.67
2018-12-25T07:19:29.001Z,7.68
2018-12-25T07:21:58.368Z,7.67
2018-12-25T07:24:27.993Z,7.68
2018-12-25T07:26:57.373Z,7.68
2018-12-25T07:29:26.992Z,7.72
2018-12-25T07:31:56.558Z,7.70
2018-12-25T07:34:25.933Z,7.74
2018-12-25T07:36:55.338Z,7.58
2018-12-25T07:39:25.018Z,7.66
2018-12-25T07:41:54.411Z,7.72
2018-12-25T07:44:23.812Z,7.72
2018-12-25T07:49:34.561Z,7.63
2018-12-25T07:52:04.102Z,7.58
2018-12-25T07:54:33.511Z,7.60
2018-12-25T07:57:02.946Z,7.72
2018-12-25T07:59:32.401Z,7.77
2018-12-25T08:02:01.796Z,7.74
2018-12-25T08:04:31.227Z,7.73
2018-12-25T08:07:00.779Z,7.64
2018-12-25T08:09:30.211Z,7.79
2018-12-25T08:11:59.586Z,7.74
2018-12-25T08:14:29.246Z,7.79
2018-12-25T08:16:58.615Z,7.79
2018-12-25T08:19:28.003Z,7.79
2018-12-25T08:21:57.528Z,7.71
2018-12-25T08:24:27.083Z,7.71
2018-12-25T08:26:56.485Z,7.82
2018-12-25T08:32:26.123Z,8.00
2018-12-25T08:34:55.657Z,8.02
2018-12-25T08:37:25.050Z,7.98
2018-12-25T08:39:54.420Z,8.00
2018-12-25T08:42:23.964Z,8.03
2018-12-25T08:44:53.371Z,8.12
2018-12-25T08:47:22.789Z,8.14
2018-12-25T08:50:03.816Z,8.18
2018-12-25T08:52:33.219Z,8.21
2018-12-25T08:55:02.721Z,8.36
2018-12-25T08:57:32.215Z,8.40
2018-12-25T09:00:01.611Z,8.45
2018-12-25T09:02:30.992Z,8.43
2018-12-25T09:05:00.510Z,8.39
2018-12-25T09:07:29.917Z,8.43
2018-12-25T09:09:59.303Z,8.48
2018-12-25T09:12:47.799Z,8.50
2018-12-25T09:15:17.195Z,8.53
2018-12-25T09:17:46.614Z,8.61
2018-12-25T09:20:16.171Z,8.60
2018-12-25T09:22:45.642Z,8.60
2018-12-25T09:25:34.017Z,8.60
2018-12-25T09:28:15.204Z,8.64
2018-12-25T09:30:44.617Z,8.74
2018-12-25T09:33:14.144Z,8.78
2018-12-25T09:36:02.408Z,8.89
2018-12-25T09:38:50.783Z,8.96
2018-12-25T09:41:20.204Z,8.81
2018-12-25T09:43:49.656Z,8.85
2018-12-25T09:46:19.142Z,8.83
2018-12-25T09:48:48.534Z,8.84
2018-12-25T09:51:20.087Z,8.77
2018-12-25T09:53:49.375Z,8.94
2018-12-25T09:56:18.764Z,8.90
2018-12-25T09:58:48.196Z,8.92
2018-12-25T10:01:36.671Z,9.00
2018-12-25T10:04:06.070Z,8.86
2018-12-25T10:06:35.497Z,8.83
2018-12-25T10:09:24.012Z,8.90
2018-12-25T10:11:53.378Z,8.89
2018-12-25T10:14:22.759Z,8.92
2018-12-25T10:16:52.212Z,8.98
2018-12-25T10:19:21.581Z,9.13
2018-12-25T10:21:50.987Z,9.15
2018-12-25T10:24:20.508Z,9.05
2018-12-25T10:27:08.826Z,8.96
2018-12-25T10:32:19.537Z,8.92
2018-12-25T10:34:48.997Z,8.94
2018-12-25T10:37:18.514Z,9.03
2018-12-25T10:39:47.864Z,9.08
2018-12-25T10:42:17.390Z,9.05
2018-12-25T10:44:46.801Z,9.08
2018-12-25T10:47:16.231Z,9.07
2018-12-25T10:49:45.766Z,9.08
2018-12-25T10:52:15.285Z,9.14
2018-12-25T10:54:44.695Z,9.15
2018-12-25T10:59:55.405Z,9.24
2018-12-25T11:02:24.983Z,9.24
2018-12-25T11:04:54.391Z,9.26
2018-12-25T11:07:23.755Z,9.26
2018-12-25T11:12:41.818Z,9.26
2018-12-25T11:17:52.911Z,9.37
2018-12-25T11:20:22.417Z,9.37
2018-12-25T11:22:51.811Z,9.38
2018-12-25T11:25:21.184Z,9.34
2018-12-25T11:30:31.906Z,9.31
2018-12-25T11:33:01.380Z,9.35
2018-12-25T11:35:30.783Z,9.31
2018-12-25T11:38:00.202Z,9.28
2018-12-25T11:40:29.634Z,9.21
2018-12-25T11:42:59.009Z,9.31
2018-12-25T11:45:28.415Z,9.21
2018-12-25T11:47:57.961Z,9.31
2018-12-25T11:50:27.352Z,9.46
2018-12-25T11:55:45.252Z,9.53
2018-12-25T11:58:14.658Z,9.51
2018-12-25T12:00:44.046Z,9.43
2018-12-25T12:03:13.561Z,9.30
2018-12-25T12:05:42.966Z,9.36
2018-12-25T12:08:12.417Z,9.33
2018-12-25T12:10:42.002Z,9.46
2018-12-25T12:13:11.687Z,9.46
2018-12-25T12:15:41.777Z,9.58
2018-12-25T12:18:11.846Z,9.53
2018-12-25T12:23:50.108Z,9.44
2018-12-25T12:29:07.903Z,9.50
2018-12-25T12:31:37.310Z,9.51
2018-12-25T12:34:06.702Z,9.46
2018-12-25T12:36:36.226Z,9.57
2018-12-25T12:39:07.611Z,9.47
2018-12-25T12:41:36.978Z,9.50
2018-12-25T12:44:06.439Z,9.48
2018-12-25T12:46:35.822Z,9.45
2018-12-25T12:49:05.259Z,9.40
2018-12-25T12:54:16.008Z,9.52
2018-12-25T12:56:45.541Z,9.44
2018-12-25T12:59:15.000Z,9.34
2018-12-25T13:01:44.403Z,9.27
2018-12-25T13:04:13.970Z,9.25
2018-12-25T13:06:43.335Z,9.30
2018-12-25T13:09:31.734Z,9.39
2018-12-25T13:12:01.130Z,9.28
2018-12-25T13:14:30.516Z,9.35
2018-12-25T13:17:00.043Z,9.41
2018-12-25T13:19:29.508Z,9.36
2018-12-25T13:21:58.836Z,9.22
2018-12-25T13:24:28.325Z,9.32
2018-12-25T13:26:57.728Z,9.29
2018-12-25T13:29:27.102Z,9.23
2018-12-25T13:34:37.850Z,9.34
2018-12-25T13:37:07.365Z,9.25
2018-12-25T13:39:36.753Z,9.41
2018-12-25T13:42:06.257Z,9.41
2018-12-25T13:44:35.779Z,9.20
2018-12-25T13:47:05.193Z,9.15
2018-12-25T13:49:53.729Z,9.34
2018-12-25T13:52:23.196Z,9.34
2018-12-25T13:54:52.560Z,9.35
2018-12-25T13:57:22.012Z,9.31
2018-12-25T13:59:51.575Z,9.25
2018-12-25T14:02:21.023Z,9.17
2018-12-25T14:07:31.742Z,9.28
2018-12-25T14:10:01.193Z,9.25
2018-12-25T14:12:49.628Z,9.29
2018-12-25T14:15:38.057Z,9.19
2018-12-25T14:18:07.450Z,9.06
2018-12-25T14:20:36.946Z,8.95
2018-12-25T14:23:11.145Z,8.98
2018-12-25T14:25:37.588Z,9.01
2018-12-25T14:28:06.950Z,8.92
2018-12-25T14:30:36.634Z,9.11
2018-12-25T14:33:06.008Z,9.06
2018-12-25T14:35:35.373Z,9.08
2018-12-25T14:40:50.077Z,9.09
2018-12-25T14:43:19.532Z,9.01
2018-12-25T14:45:48.903Z,9.03
2018-12-25T14:48:18.295Z,8.99
2018-12-25T14:50:47.831Z,8.86
2018-12-25T14:53:19.912Z,8.79
2018-12-25T14:55:48.350Z,8.83
2018-12-25T14:58:17.773Z,8.92
2018-12-25T15:00:47.209Z,8.94
2018-12-25T15:03:16.712Z,9.00
2018-12-25T15:05:46.445Z,9.00
2018-12-25T15:08:15.838Z,8.95
2018-12-25T15:13:45.584Z,8.90
2018-12-25T15:16:15.140Z,8.86
2018-12-25T15:18:44.567Z,8.87
2018-12-25T15:21:14.072Z,8.86
2018-12-25T15:26:24.785Z,8.86
2018-12-25T15:31:35.517Z,8.97
2018-12-25T15:34:05.233Z,8.87
2018-12-25T15:36:34.686Z,8.79
2018-12-25T15:44:47.347Z,8.97
2018-12-25T15:47:16.954Z,8.93
2018-12-25T15:49:46.368Z,8.75
2018-12-25T15:55:04.171Z,8.94
2018-12-25T15:57:33.569Z,9.01
2018-12-25T16:05:32.839Z,8.77
2018-12-25T16:08:02.367Z,8.78
2018-12-25T16:10:31.778Z,8.91
2018-12-25T16:13:01.180Z,8.94
2018-12-25T16:18:12.062Z,8.96
2018-12-25T16:20:42.280Z,8.97
2018-12-25T16:23:12.025Z,9.00
2018-12-25T16:25:42.006Z,8.99
2018-12-25T16:28:12.159Z,8.93
2018-12-25T16:30:42.048Z,8.99
2018-12-25T16:33:12.002Z,9.04
2018-12-25T16:35:42.109Z,9.12
2018-12-25T16:38:11.989Z,8.96
2018-12-25T16:40:42.004Z,9.04
2018-12-25T16:43:12.077Z,8.97
2018-12-25T16:45:42.045Z,9.02
2018-12-25T16:48:12.094Z,8.99
2018-12-25T16:50:42.114Z,9.06
2018-12-25T16:53:12.036Z,9.03
2018-12-25T16:56:01.395Z,8.97
2018-12-25T16:58:42.674Z,9.04
2018-12-25T17:01:12.099Z,8.98
2018-12-25T17:03:42.138Z,8.91
2018-12-25T17:06:12.187Z,8.90
2018-12-25T17:08:42.028Z,8.95
2018-12-25T17:11:12.135Z,9.05
2018-12-25T17:13:41.987Z,9.02
2018-12-25T17:16:12.109Z,8.91
2018-12-25T17:18:42.175Z,8.88
2018-12-25T17:21:12.085Z,8.98
2018-12-25T17:23:42.089Z,9.04
2018-12-25T17:26:12.194Z,8.92
2018-12-25T17:28:53.331Z,8.96
2018-12-25T17:31:22.927Z,9.00
2018-12-25T17:33:52.344Z,9.09
2018-12-25T17:36:21.764Z,9.05
2018-12-25T17:38:51.382Z,8.94
2018-12-25T17:41:20.930Z,8.97
2018-12-25T17:43:50.301Z,8.95
2018-12-25T17:46:19.843Z,8.91
2018-12-25T17:48:49.239Z,8.99
2018-12-25T17:51:18.651Z,8.97
2018-12-25T17:53:48.097Z,8.95
2018-12-25T17:56:17.505Z,9.02
2018-12-25T17:58:46.939Z,9.07
2018-12-25T18:01:16.465Z,8.98
2018-12-25T18:03:45.903Z,8.97
2018-12-25T18:06:15.322Z,8.94
2018-12-25T18:08:44.979Z,8.87
2018-12-25T18:11:16.363Z,8.89
2018-12-25T18:13:45.784Z,8.84
2018-12-25T18:18:56.574Z,8.77
2018-12-25T18:24:26.291Z,8.88
2018-12-25T18:26:55.803Z,8.79
2018-12-25T18:29:44.215Z,8.79
2018-12-25T18:32:13.797Z,8.71
2018-12-25T18:35:02.208Z,8.70
2018-12-25T18:40:31.961Z,8.60
2018-12-25T18:43:01.454Z,8.56
2018-12-25T18:45:30.823Z,8.61
2018-12-25T18:48:00.247Z,8.61
2018-12-25T18:50:29.758Z,8.59
2018-12-25T18:55:47.571Z,8.65
2018-12-25T18:58:17.006Z,8.71
2018-12-25T19:00:46.459Z,8.75
2018-12-25T19:03:15.881Z,8.66
2018-12-25T19:06:04.145Z,8.78
2018-12-25T19:11:15.156Z,8.62
2018-12-25T19:13:44.657Z,8.70
2018-12-25T19:16:14.110Z,8.72
2018-12-25T19:18:43.529Z,8.78
2018-12-25T19:21:13.016Z,8.81
2018-12-25T19:24:01.778Z,8.82
2018-12-25T19:26:31.433Z,8.79
2018-12-25T19:29:00.833Z,8.79
2018-12-25T19:31:30.314Z,8.72
2018-12-25T19:33:59.892Z,8.65
2018-12-25T19:36:29.265Z,8.81
2018-12-25T19:38:58.662Z,8.81
2018-12-25T19:44:16.617Z,8.71
2018-12-25T19:49:27.391Z,8.84
2018-12-25T19:54:44.523Z,8.74
2018-12-25T19:57:09.975Z,8.81
2018-12-25T19:59:40.623Z,8.74
2018-12-25T20:02:10.112Z,8.81
2018-12-25T20:05:17.625Z,8.81
2018-12-25T20:08:25.036Z,8.81
2018-12-25T20:11:32.437Z,8.72
2018-12-25T20:14:13.363Z,8.82
2018-12-25T20:17:20.898Z,8.82
2018-12-25T20:20:28.230Z,8.88
2018-12-25T20:23:35.964Z,8.87
2018-12-25T20:26:43.330Z,8.75
2018-12-25T20:29:50.849Z,8.72
2018-12-25T20:32:43.677Z,8.66
2018-12-25T20:35:51.423Z,8.67
2018-12-25T20:38:56.555Z,8.65
2018-12-25T20:42:03.935Z,8.63
2018-12-25T20:45:11.270Z,8.53
2018-12-25T20:48:18.779Z,8.53
2018-12-25T20:51:26.120Z,8.51
2018-12-25T20:54:33.696Z,8.53
2018-12-25T20:57:41.085Z,8.50
2018-12-25T21:00:48.556Z,8.49
2018-12-25T21:07:06.667Z,8.56
2018-12-25T21:10:15.907Z,8.59
2018-12-25T21:13:23.380Z,8.60
2018-12-25T21:16:30.773Z,8.54
2018-12-25T21:19:38.292Z,8.67
2018-12-25T21:22:45.687Z,8.64
2018-12-25T21:25:53.181Z,8.52
2018-12-25T21:28:20.798Z,8.56
2018-12-25T21:30:50.198Z,8.58
2018-12-25T21:33:19.741Z,8.65
2018-12-25T21:36:08.012Z,8.69
2018-12-25T21:39:16.727Z,8.68
2018-12-25T21:41:46.132Z,8.59
2018-12-25T21:47:56.519Z,8.49
2018-12-25T21:50:26.051Z,8.54
2018-12-25T21:53:14.610Z,8.68
2018-12-25T21:56:15.164Z,8.68
2018-12-25T21:58:44.852Z,8.65
2018-12-25T22:01:14.506Z,8.65
2018-12-25T22:03:44.013Z,8.61
2018-12-25T22:06:13.592Z,8.64
2018-12-25T22:08:42.994Z,8.69
2018-12-25T22:11:12.398Z,8.61
2018-12-25T22:13:45.362Z,8.59
2018-12-25T22:16:14.888Z,8.53
2018-12-25T22:18:44.292Z,8.63
2018-12-25T22:21:13.966Z,8.65
2018-12-25T22:26:33.775Z,8.69
2018-12-25T22:29:03.485Z,8.78
2018-12-25T22:31:32.867Z,8.78
2018-12-25T22:34:02.485Z,8.79
2018-12-25T22:42:21.995Z,8.66
2018-12-25T22:44:51.585Z,8.71
2018-12-25T22:47:20.994Z,8.68
2018-12-25T22:52:38.836Z,8.63
2018-12-25T22:55:09.761Z,8.71
2018-12-25T22:57:39.150Z,8.60
2018-12-25T23:00:11.062Z,8.67
2018-12-25T23:02:59.375Z,8.64
2018-12-25T23:05:28.841Z,8.50
2018-12-25T23:08:00.320Z,8.59
2018-12-25T23:10:29.755Z,8.67
2018-12-25T23:12:59.264Z,8.65
2018-12-25T23:18:17.061Z,8.53
2018-12-25T23:20:46.513Z,8.61
2018-12-25T23:23:16.072Z,8.53
2018-12-25T23:25:45.624Z,8.55
2018-12-25T23:28:15.091Z,8.50
2018-12-25T23:30:44.504Z,8.52
2018-12-25T23:33:14.037Z,8.55
2018-12-25T23:35:43.436Z,8.55
2018-12-25T23:38:12.830Z,8.53
2018-12-25T23:40:42.678Z,8.42
2018-12-25T23:43:12.751Z,8.45
2018-12-25T23:45:42.549Z,8.55
2018-12-25T23:48:12.481Z,8.51
2018-12-25T23:50:42.454Z,8.46
2018-12-25T23:53:12.480Z,8.46
2018-12-25T23:55:42.727Z,8.46
2018-12-25T23:58:12.645Z,8.50
